createdAt,value
2023-04-25T00:01:10.016Z,2.60
2023-04-25T00:03:37.292Z,2.30
2023-04-25T00:06:04.414Z,2.30
2023-04-25T00:08:31.573Z,2.40
2023-04-25T00:10:58.962Z,2.63
2023-04-25T00:13:26.470Z,2.42
2023-04-25T00:15:57.452Z,2.33
2023-04-25T00:18:24.584Z,3.30
2023-04-25T00:20:51.775Z,2.33
2023-04-25T00:23:19.315Z,2.67
2023-04-25T00:25:46.910Z,2.25
2023-04-25T00:28:14.273Z,2.53
2023-04-25T00:30:42.041Z,2.03
2023-04-25T00:33:09.531Z,2.97
2023-04-25T00:35:36.895Z,2.78
2023-04-25T00:38:04.068Z,2.35
2023-04-25T00:40:31.089Z,2.60
2023-04-25T00:42:58.144Z,3.03
2023-04-25T00:45:28.700Z,2.38
2023-04-25T00:47:56.238Z,3.28
2023-04-25T00:50:23.434Z,2.38
2023-04-25T00:52:50.556Z,2.72
2023-04-25T00:55:17.913Z,1.73
2023-04-25T00:57:44.972Z,2.60
2023-04-25T01:00:12.173Z,2.17
2023-04-25T01:02:39.559Z,2.35
2023-04-25T01:05:06.805Z,2.60
2023-04-25T01:07:33.893Z,2.15
2023-04-25T01:10:01.030Z,2.78
2023-04-25T01:12:28.063Z,2.45
2023-04-25T01:14:55.467Z,3.05
2023-04-25T01:17:22.504Z,2.10
2023-04-25T01:19:49.968Z,3.08
2023-04-25T01:22:17.815Z,2.92
2023-04-25T01:24:45.102Z,2.25
2023-04-25T01:27:12.472Z,2.83
2023-04-25T01:29:39.937Z,2.08
2023-04-25T01:32:07.567Z,2.55
2023-04-25T01:34:34.720Z,3.42
2023-04-25T01:37:02.838Z,2.40
2023-04-25T01:39:30.093Z,2.05
2023-04-25T01:41:57.650Z,1.98
2023-04-25T01:44:24.834Z,1.98
2023-04-25T01:46:52.257Z,3.05
2023-04-25T01:49:19.441Z,2.15
2023-04-25T01:51:46.511Z,2.65
2023-04-25T01:54:14.045Z,2.33
2023-04-25T01:56:41.328Z,2.50
2023-04-25T01:59:08.462Z,2.95
2023-04-25T02:01:35.548Z,2.30
2023-04-25T02:04:02.802Z,3.03
2023-04-25T02:06:29.994Z,2.40
2023-04-25T02:08:57.049Z,2.45
2023-04-25T02:11:24.119Z,2.67
2023-04-25T02:13:51.408Z,2.30
2023-04-25T02:16:19.841Z,2.17
2023-04-25T02:18:47.911Z,2.33
2023-04-25T02:21:14.984Z,2.58
2023-04-25T02:23:42.116Z,2.22
2023-04-25T02:26:09.140Z,2.22
2023-04-25T02:28:36.364Z,2.53
2023-04-25T02:31:03.475Z,2.60
2023-04-25T02:33:30.610Z,2.65
2023-04-25T02:35:57.695Z,2.10
2023-04-25T02:38:24.796Z,3.10
2023-04-25T02:40:51.831Z,2.20
2023-04-25T02:43:18.975Z,2.65
2023-04-25T02:45:46.061Z,2.58
2023-04-25T02:48:13.135Z,2.55
2023-04-25T02:50:40.274Z,2.80
2023-04-25T02:53:07.346Z,2.53
2023-04-25T02:55:34.400Z,2.38
2023-04-25T02:58:01.507Z,2.97
2023-04-25T03:00:28.676Z,2.38
2023-04-25T03:02:56.638Z,2.67
2023-04-25T03:05:23.786Z,2.28
2023-04-25T03:07:50.847Z,2.70
2023-04-25T03:10:17.842Z,2.97
2023-04-25T03:12:44.860Z,2.42
2023-04-25T03:15:12.029Z,2.63
2023-04-25T03:17:39.091Z,2.22
2023-04-25T03:20:06.544Z,2.38
2023-04-25T03:22:33.561Z,2.50
2023-04-25T03:25:00.637Z,2.25
2023-04-25T03:27:27.749Z,2.63
2023-04-25T03:29:54.782Z,1.88
2023-04-25T03:32:22.009Z,2.50
2023-04-25T03:34:49.491Z,2.85
2023-04-25T03:37:16.614Z,2.90
2023-04-25T03:39:43.779Z,1.70
2023-04-25T03:42:10.921Z,2.28
2023-04-25T03:44:37.991Z,2.72
2023-04-25T03:47:05.035Z,2.22
2023-04-25T03:49:32.534Z,2.30
2023-04-25T03:51:59.610Z,1.75
2023-04-25T03:54:26.653Z,1.80
2023-04-25T03:56:53.681Z,1.80
2023-04-25T03:59:20.820Z,3.45
2023-04-25T04:01:47.853Z,1.73
2023-04-25T04:04:15.234Z,1.67
2023-04-25T04:06:43.124Z,1.50
2023-04-25T04:09:11.985Z,1.73
2023-04-25T04:11:39.671Z,2.35
2023-04-25T04:14:07.418Z,1.27
2023-04-25T04:16:34.804Z,1.35
2023-04-25T04:19:02.109Z,1.52
2023-04-25T04:21:29.246Z,1.55
2023-04-25T04:23:56.354Z,2.20
2023-04-25T04:26:24.333Z,1.10
2023-04-25T04:28:52.856Z,1.95
2023-04-25T04:31:20.561Z,1.42
2023-04-25T04:33:48.004Z,1.20
2023-04-25T04:36:15.244Z,1.45
2023-04-25T04:38:43.264Z,1.63
2023-04-25T04:41:10.737Z,1.27
2023-04-25T04:43:37.786Z,1.20
2023-04-25T04:46:05.196Z,1.90
2023-04-25T04:48:35.554Z,1.38
2023-04-25T04:51:02.639Z,1.20
2023-04-25T04:53:29.894Z,1.10
2023-04-25T04:55:56.987Z,1.20
2023-04-25T04:58:24.096Z,1.20
2023-04-25T05:00:51.393Z,1.50
2023-04-25T05:03:18.686Z,1.40
2023-04-25T05:05:46.838Z,1.40
2023-04-25T05:08:13.937Z,1.63
2023-04-25T05:10:41.129Z,1.10
2023-04-25T05:13:08.203Z,1.27
2023-04-25T05:15:35.759Z,1.13
2023-04-25T05:18:03.506Z,1.02
2023-04-25T05:20:30.930Z,1.15
2023-04-25T05:22:57.963Z,1.30
2023-04-25T05:25:25.129Z,1.77
2023-04-25T05:27:53.401Z,1.73
2023-04-25T05:30:20.633Z,1.17
2023-04-25T05:32:47.941Z,1.20
2023-04-25T05:35:15.219Z,1.48
2023-04-25T05:37:42.346Z,1.40
2023-04-25T05:40:09.795Z,0.93
2023-04-25T05:42:36.878Z,0.68
2023-04-25T05:45:04.151Z,1.13
2023-04-25T05:47:31.191Z,1.50
2023-04-25T05:49:58.248Z,1.52
2023-04-25T05:52:25.938Z,0.93
2023-04-25T05:54:52.986Z,0.70
2023-04-25T05:57:27.062Z,0.82
2023-04-25T05:59:54.751Z,1.30
2023-04-25T06:02:22.690Z,1.30
2023-04-25T06:04:52.048Z,0.80
2023-04-25T06:07:19.949Z,1.00
2023-04-25T06:09:47.019Z,0.95
2023-04-25T06:12:14.073Z,1.20
2023-04-25T06:14:41.457Z,1.00
2023-04-25T06:17:09.437Z,1.58
2023-04-25T06:19:37.413Z,1.20
2023-04-25T06:22:04.723Z,0.80
2023-04-25T06:24:31.855Z,0.93
2023-04-25T06:26:58.885Z,1.08
2023-04-25T06:29:25.919Z,0.70
2023-04-25T06:31:53.430Z,1.10
2023-04-25T06:34:20.703Z,0.60
2023-04-25T06:36:47.778Z,0.75
2023-04-25T06:39:14.837Z,0.90
2023-04-25T06:41:41.847Z,1.08
2023-04-25T06:44:08.929Z,0.80
2023-04-25T06:46:36.213Z,1.15
2023-04-25T06:49:03.332Z,0.68
2023-04-25T06:51:31.651Z,0.70
2023-04-25T06:53:58.951Z,0.57
2023-04-25T06:56:26.048Z,0.63
2023-04-25T06:58:53.447Z,0.85
2023-04-25T07:01:20.698Z,0.60
2023-04-25T07:03:48.208Z,0.77
2023-04-25T07:06:15.577Z,0.40
2023-04-25T07:08:42.631Z,0.73
2023-04-25T07:11:09.645Z,0.50
2023-04-25T07:13:37.341Z,0.70
2023-04-25T07:16:04.827Z,0.50
2023-04-25T07:18:31.969Z,0.70
2023-04-25T07:20:59.036Z,0.30
2023-04-25T07:23:26.112Z,0.65
2023-04-25T07:25:53.128Z,0.70
2023-04-25T07:28:20.178Z,0.45
2023-04-25T07:30:47.293Z,0.80
2023-04-25T07:33:14.435Z,0.50
2023-04-25T07:35:41.685Z,1.20
2023-04-25T07:38:08.935Z,0.52
2023-04-25T07:40:36.265Z,0.82
2023-04-25T07:43:03.320Z,0.70
2023-04-25T07:45:30.497Z,0.60
2023-04-25T07:47:57.605Z,1.00
2023-04-25T07:50:24.899Z,0.85
2023-04-25T07:52:51.999Z,0.80
2023-04-25T07:55:19.129Z,0.90
2023-04-25T07:57:46.259Z,0.52
2023-04-25T08:00:13.746Z,0.57
2023-04-25T08:02:40.876Z,1.17
2023-04-25T08:05:09.355Z,0.93
2023-04-25T08:07:36.676Z,1.08
2023-04-25T08:10:03.809Z,0.90
2023-04-25T08:12:30.921Z,0.98
2023-04-25T08:14:57.985Z,0.80
2023-04-25T08:17:25.013Z,0.77
2023-04-25T08:19:52.074Z,0.52
2023-04-25T08:22:19.286Z,0.43
2023-04-25T08:24:46.506Z,0.45
2023-04-25T08:27:13.597Z,0.47
2023-04-25T08:29:40.721Z,0.63
2023-04-25T08:32:07.760Z,0.35
2023-04-25T08:34:34.921Z,0.35
2023-04-25T08:37:02.040Z,0.40
2023-04-25T08:39:29.213Z,0.30
2023-04-25T08:41:56.594Z,0.45
2023-04-25T08:44:23.860Z,0.20
2023-04-25T08:46:51.331Z,0.45
2023-04-25T08:49:19.991Z,0.30
2023-04-25T08:51:48.247Z,0.45
2023-04-25T08:54:30.210Z,0.30
2023-04-25T08:57:03.141Z,0.45
2023-04-25T08:59:30.485Z,0.45
2023-04-25T09:01:57.814Z,0.80
2023-04-25T09:04:25.128Z,0.43
2023-04-25T09:06:52.249Z,0.20
2023-04-25T09:09:19.323Z,0.30
2023-04-25T09:11:46.412Z,0.30
2023-04-25T09:14:17.511Z,0.40
2023-04-25T09:17:02.708Z,0.47
2023-04-25T09:22:04.957Z,0.60
2023-04-25T09:24:33.006Z,0.68
2023-04-25T09:27:00.231Z,0.70
2023-04-25T09:29:31.977Z,0.82
2023-04-25T09:32:18.695Z,0.82
2023-04-25T09:34:50.625Z,0.75
2023-04-25T09:37:26.576Z,0.60
2023-04-25T09:39:58.326Z,0.50
2023-04-25T09:42:26.412Z,0.45
2023-04-25T09:44:54.658Z,0.50
2023-04-25T09:47:25.326Z,0.50
2023-04-25T09:49:53.517Z,0.40
2023-04-25T09:52:23.906Z,0.40
2023-04-25T09:57:19.358Z,0.63
2023-04-25T09:59:53.372Z,0.70
2023-04-25T10:02:21.618Z,0.50
2023-04-25T10:04:53.777Z,0.40
2023-04-25T10:07:22.240Z,0.73
2023-04-25T10:09:51.341Z,0.55
2023-04-25T10:12:18.969Z,0.35
2023-04-25T10:14:46.046Z,0.40
2023-04-25T10:17:13.095Z,0.50
2023-04-25T10:19:40.963Z,0.63
2023-04-25T10:22:10.284Z,1.20
2023-04-25T10:24:38.150Z,0.38
2023-04-25T10:27:06.458Z,0.43
2023-04-25T10:29:33.879Z,0.52
2023-04-25T10:32:01.550Z,0.98
2023-04-25T10:34:47.464Z,0.80
2023-04-25T10:37:14.888Z,0.60
2023-04-25T10:39:42.789Z,0.40
2023-04-25T10:42:10.142Z,0.45
2023-04-25T10:44:39.378Z,0.45
2023-04-25T10:47:08.340Z,0.50
2023-04-25T10:49:36.544Z,0.60
2023-04-25T10:52:15.837Z,0.70
2023-04-25T10:55:03.184Z,0.40
2023-04-25T10:57:41.583Z,0.68
2023-04-25T11:00:11.809Z,0.98
2023-04-25T11:02:39.882Z,0.60
2023-04-25T11:05:07.526Z,0.77
2023-04-25T11:07:40.462Z,0.77
2023-04-25T11:10:08.429Z,5.78
2023-04-25T11:12:35.653Z,1.50
2023-04-25T11:15:04.080Z,0.90
2023-04-25T11:17:31.361Z,0.85
2023-04-25T11:19:59.038Z,0.88
2023-04-25T11:22:26.212Z,0.60
2023-04-25T11:24:53.305Z,0.80
2023-04-25T11:27:20.835Z,1.10
2023-04-25T11:29:49.009Z,7.70
2023-04-25T11:32:17.553Z,1.00
2023-04-25T11:34:48.914Z,1.65
2023-04-25T11:37:16.552Z,0.40
2023-04-25T11:39:47.309Z,0.63
2023-04-25T11:42:14.541Z,1.07
2023-04-25T11:44:41.793Z,0.55
2023-04-25T11:47:09.025Z,0.77
2023-04-25T11:49:36.772Z,1.10
2023-04-25T11:52:03.947Z,0.60
2023-04-25T11:54:31.117Z,0.60
2023-04-25T11:56:58.241Z,0.47
2023-04-25T11:59:26.313Z,0.40
2023-04-25T12:01:53.792Z,1.17
2023-04-25T12:04:25.070Z,0.30
2023-04-25T12:06:53.392Z,0.73
2023-04-25T12:09:24.552Z,0.60
2023-04-25T12:11:59.208Z,0.75
2023-04-25T12:14:28.188Z,0.43
2023-04-25T12:16:58.205Z,0.65
2023-04-25T12:19:25.591Z,0.95
2023-04-25T12:24:25.747Z,0.52
2023-04-25T12:26:53.746Z,0.70
2023-04-25T12:29:27.678Z,0.63
2023-04-25T12:31:57.118Z,0.93
2023-04-25T12:34:24.779Z,0.40
2023-04-25T12:36:52.473Z,0.68
2023-04-25T12:39:23.148Z,0.68
2023-04-25T12:41:51.045Z,0.65
2023-04-25T12:44:18.502Z,0.80
2023-04-25T12:46:46.092Z,0.95
2023-04-25T12:51:44.409Z,0.70
2023-04-25T12:54:11.697Z,0.50
2023-04-25T12:56:38.757Z,0.47
2023-04-25T12:59:05.882Z,0.60
2023-04-25T13:01:34.705Z,0.50
2023-04-25T13:04:03.609Z,0.50
2023-04-25T13:06:31.810Z,0.95
2023-04-25T13:08:58.963Z,0.60
2023-04-25T13:11:26.102Z,0.60
2023-04-25T13:13:53.627Z,0.90
2023-04-25T13:16:22.432Z,0.85
2023-04-25T13:18:49.697Z,0.50
2023-04-25T13:21:16.977Z,0.63
2023-04-25T13:23:45.591Z,0.63
2023-04-25T13:26:12.790Z,2.88
2023-04-25T13:28:42.914Z,0.93
2023-04-25T13:31:11.802Z,0.70
2023-04-25T13:33:38.859Z,0.55
2023-04-25T13:36:06.403Z,0.77
2023-04-25T13:38:33.622Z,1.45
2023-04-25T13:41:01.909Z,0.60
2023-04-25T13:43:29.068Z,0.80
2023-04-25T13:45:56.164Z,0.93
2023-04-25T13:48:24.249Z,0.73
2023-04-25T13:50:51.630Z,0.68
2023-04-25T13:53:18.752Z,0.70
2023-04-25T13:55:45.842Z,0.88
2023-04-25T13:58:13.007Z,4.32
2023-04-25T14:00:41.477Z,6.05
2023-04-25T14:03:09.766Z,2.97
2023-04-25T14:05:41.004Z,1.77
2023-04-25T14:08:08.976Z,3.17
2023-04-25T14:10:36.719Z,1.23
2023-04-25T14:13:04.473Z,2.35
2023-04-25T14:15:35.253Z,3.53
2023-04-25T14:18:02.776Z,1.10
2023-04-25T14:20:29.987Z,1.05
2023-04-25T14:22:58.922Z,0.60
2023-04-25T14:25:26.383Z,0.75
2023-04-25T14:27:53.514Z,0.40
2023-04-25T14:30:21.316Z,0.50
2023-04-25T14:32:49.834Z,0.40
2023-04-25T14:35:16.993Z,0.40
2023-04-25T14:37:44.152Z,0.40
2023-04-25T14:40:11.847Z,0.50
2023-04-25T14:42:39.101Z,0.45
2023-04-25T14:45:08.280Z,0.90
2023-04-25T14:47:36.014Z,0.40
2023-04-25T14:50:03.366Z,0.77
2023-04-25T14:52:30.591Z,0.55
2023-04-25T14:54:57.648Z,0.47
2023-04-25T14:57:24.727Z,0.57
2023-04-25T14:59:51.929Z,0.75
2023-04-25T15:02:19.011Z,0.57
2023-04-25T15:04:46.176Z,0.68
2023-04-25T15:07:13.279Z,0.70
2023-04-25T15:09:40.335Z,1.05
2023-04-25T15:12:07.516Z,0.47
2023-04-25T15:14:34.997Z,1.27
2023-04-25T15:17:02.396Z,1.25
2023-04-25T15:19:29.563Z,0.73
2023-04-25T15:21:56.784Z,0.77
2023-04-25T15:24:23.905Z,0.93
2023-04-25T15:26:51.543Z,1.13
2023-04-25T15:29:18.602Z,0.88
2023-04-25T15:31:45.981Z,0.90
2023-04-25T15:34:13.071Z,0.90
2023-04-25T15:36:40.157Z,0.50
2023-04-25T15:39:07.202Z,1.35
2023-04-25T15:41:34.288Z,2.05
2023-04-25T15:44:01.758Z,1.42
2023-04-25T15:46:31.206Z,1.05
2023-04-25T15:48:58.556Z,1.75
2023-04-25T15:51:25.641Z,2.22
2023-04-25T15:53:52.973Z,1.13
2023-04-25T15:56:20.378Z,1.25
2023-04-25T15:58:47.433Z,1.80
2023-04-25T16:01:15.034Z,1.40
2023-04-25T16:03:42.273Z,0.93
2023-04-25T16:06:09.473Z,0.85
2023-04-25T16:08:36.531Z,0.77
2023-04-25T16:11:03.611Z,0.70
2023-04-25T16:13:30.897Z,0.57
2023-04-25T16:15:58.133Z,0.95
2023-04-25T16:18:25.278Z,0.80
2023-04-25T16:20:52.439Z,1.33
2023-04-25T16:23:19.593Z,1.02
2023-04-25T16:25:46.673Z,2.03
2023-04-25T16:28:13.917Z,1.55
2023-04-25T16:30:41.383Z,1.65
2023-04-25T16:33:09.047Z,1.05
2023-04-25T16:35:36.181Z,0.80
2023-04-25T16:38:03.267Z,0.88
2023-04-25T16:40:30.320Z,0.60
2023-04-25T16:42:57.461Z,0.80
2023-04-25T16:45:24.679Z,0.43
2023-04-25T16:47:51.790Z,0.73
2023-04-25T16:50:20.208Z,1.10
2023-04-25T16:52:47.305Z,1.30
2023-04-25T16:55:14.395Z,1.02
2023-04-25T16:57:41.528Z,0.95
2023-04-25T17:00:12.992Z,1.25
2023-04-25T17:02:40.146Z,0.68
2023-04-25T17:05:07.526Z,0.93
2023-04-25T17:07:34.579Z,0.60
2023-04-25T17:10:01.775Z,0.60
2023-04-25T17:12:28.883Z,0.70
2023-04-25T17:14:55.995Z,0.63
2023-04-25T17:17:23.132Z,0.70
2023-04-25T17:19:50.257Z,1.25
2023-04-25T17:22:17.498Z,0.80
2023-04-25T17:24:44.594Z,0.80
2023-04-25T17:27:11.849Z,0.70
2023-04-25T17:29:38.932Z,1.23
2023-04-25T17:32:06.070Z,0.68
2023-04-25T17:34:33.081Z,1.00
2023-04-25T17:37:00.194Z,0.93
2023-04-25T17:39:27.324Z,0.57
2023-04-25T17:41:54.389Z,0.68
2023-04-25T17:44:21.404Z,0.50
2023-04-25T17:46:48.634Z,1.42
2023-04-25T17:49:15.836Z,0.80
2023-04-25T17:51:42.915Z,0.60
2023-04-25T17:54:10.045Z,0.95
2023-04-25T17:56:38.260Z,1.98
2023-04-25T17:59:05.330Z,2.13
2023-04-25T18:01:32.783Z,0.75
2023-04-25T18:04:00.011Z,3.03
2023-04-25T18:06:28.258Z,2.03
2023-04-25T18:08:57.010Z,1.10
2023-04-25T18:11:24.282Z,0.60
2023-04-25T18:13:51.635Z,0.80
2023-04-25T18:16:18.758Z,1.33
2023-04-25T18:18:52.874Z,0.80
2023-04-25T18:21:20.683Z,0.70
2023-04-25T18:23:47.829Z,1.30
2023-04-25T18:26:15.965Z,1.00
2023-04-25T18:28:43.097Z,1.10
2023-04-25T18:31:11.645Z,1.48
2023-04-25T18:33:38.843Z,2.25
2023-04-25T18:36:06.395Z,4.47
2023-04-25T18:38:36.005Z,2.53
2023-04-25T18:41:26.968Z,1.20
2023-04-25T18:43:55.112Z,1.10
2023-04-25T18:46:22.984Z,1.02
2023-04-25T18:48:50.646Z,0.82
2023-04-25T18:51:17.850Z,1.67
2023-04-25T18:53:45.332Z,0.80
2023-04-25T18:56:13.571Z,1.50
2023-04-25T18:58:40.711Z,1.83
2023-04-25T19:01:08.820Z,1.52
2023-04-25T19:03:36.222Z,1.20
2023-04-25T19:06:03.852Z,2.17
2023-04-25T19:08:31.047Z,2.65
2023-04-25T19:10:59.718Z,2.50
2023-04-25T19:13:29.826Z,1.42
2023-04-25T19:15:57.796Z,0.70
2023-04-25T19:18:25.993Z,2.92
2023-04-25T19:20:53.371Z,2.10
2023-04-25T19:23:24.398Z,1.50
2023-04-25T19:25:51.538Z,0.88
2023-04-25T19:28:18.637Z,1.60
2023-04-25T19:30:46.466Z,1.90
2023-04-25T19:33:14.031Z,1.83
2023-04-25T19:35:42.056Z,1.70
2023-04-25T19:38:09.103Z,2.00
2023-04-25T19:40:36.711Z,1.48
2023-04-25T19:43:04.394Z,2.00
2023-04-25T19:45:33.959Z,1.35
2023-04-25T19:48:04.108Z,1.90
2023-04-25T19:50:31.685Z,1.38
2023-04-25T19:52:58.774Z,0.80
2023-04-25T19:55:26.794Z,1.65
2023-04-25T19:57:53.830Z,1.67
2023-04-25T20:00:22.181Z,1.50
2023-04-25T20:02:49.605Z,0.95
2023-04-25T20:05:17.931Z,1.52
2023-04-25T20:07:45.071Z,0.73
2023-04-25T20:10:16.392Z,0.80
2023-04-25T20:12:45.080Z,1.38
2023-04-25T20:15:12.499Z,0.90
2023-04-25T20:17:41.631Z,0.80
2023-04-25T20:20:09.934Z,0.90
2023-04-25T20:22:38.713Z,0.95
2023-04-25T20:25:06.954Z,1.63
2023-04-25T20:27:34.142Z,1.15
2023-04-25T20:30:04.995Z,1.05
2023-04-25T20:32:32.278Z,1.38
2023-04-25T20:34:59.457Z,1.38
2023-04-25T20:37:27.397Z,1.45
2023-04-25T20:39:54.584Z,1.63
2023-04-25T20:42:21.670Z,2.13
2023-04-25T20:44:49.193Z,1.20
2023-04-25T20:47:16.700Z,1.65
2023-04-25T20:49:43.809Z,1.38
2023-04-25T20:52:10.806Z,2.58
2023-04-25T20:54:37.900Z,1.65
2023-04-25T20:57:05.284Z,1.08
2023-04-25T20:59:32.764Z,0.95
2023-04-25T21:01:59.950Z,1.58
2023-04-25T21:04:27.300Z,1.92
2023-04-25T21:06:54.603Z,1.45
2023-04-25T21:09:21.732Z,3.72
2023-04-25T21:11:48.804Z,1.60
2023-04-25T21:14:16.514Z,1.23
2023-04-25T21:16:43.695Z,1.67
2023-04-25T21:19:10.857Z,1.42
2023-04-25T21:21:37.906Z,1.27
2023-04-25T21:24:04.947Z,1.20
2023-04-25T21:26:32.029Z,2.15
2023-04-25T21:28:59.097Z,1.30
2023-04-25T21:31:26.347Z,1.20
2023-04-25T21:33:53.630Z,1.63
2023-04-25T21:36:20.750Z,0.75
2023-04-25T21:38:48.243Z,1.33
2023-04-25T21:41:15.336Z,1.40
2023-04-25T21:43:42.480Z,1.48
2023-04-25T21:48:39.518Z,1.52
2023-04-25T21:51:06.662Z,1.33
2023-04-25T21:53:34.002Z,0.95
2023-04-25T21:56:01.069Z,1.25
2023-04-25T21:58:28.158Z,2.03
2023-04-25T22:00:55.560Z,1.30
2023-04-25T22:03:22.766Z,1.10
2023-04-25T22:05:49.891Z,1.52
2023-04-25T22:08:17.426Z,0.95
2023-04-25T22:10:44.779Z,1.45
2023-04-25T22:13:11.849Z,1.67
2023-04-25T22:15:38.914Z,2.10
2023-04-25T22:18:06.217Z,1.17
2023-04-25T22:20:33.340Z,1.15
2023-04-25T22:23:00.899Z,1.10
2023-04-25T22:25:28.551Z,1.35
2023-04-25T22:27:55.817Z,1.80
2023-04-25T22:30:23.008Z,1.15
2023-04-25T22:32:50.083Z,1.25
2023-04-25T22:35:17.362Z,2.35
2023-04-25T22:37:44.801Z,1.60
2023-04-25T22:40:12.158Z,2.33
2023-04-25T22:42:43.465Z,1.00
2023-04-25T22:45:11.374Z,2.00
2023-04-25T22:47:38.938Z,1.40
2023-04-25T22:50:08.650Z,1.77
2023-04-25T22:52:35.780Z,1.60
2023-04-25T22:55:03.275Z,1.77
2023-04-25T22:57:30.569Z,1.27
2023-04-25T22:59:57.732Z,2.03
2023-04-25T23:02:25.764Z,1.63
2023-04-25T23:04:53.911Z,1.77
2023-04-25T23:07:21.246Z,1.63
2023-04-25T23:09:48.368Z,1.65
2023-04-25T23:12:18.473Z,2.88
2023-04-25T23:14:49.386Z,1.88
2023-04-25T23:17:16.484Z,1.83
2023-04-25T23:19:43.560Z,1.65
2023-04-25T23:22:10.690Z,1.25
2023-04-25T23:24:39.026Z,1.73
2023-04-25T23:27:06.108Z,1.80
2023-04-25T23:29:34.151Z,1.70
2023-04-25T23:32:01.618Z,2.00
2023-04-25T23:34:31.773Z,1.42
2023-04-25T23:37:01.128Z,1.52
2023-04-25T23:39:28.641Z,1.70
2023-04-25T23:41:55.763Z,1.65
2023-04-25T23:44:22.871Z,1.52
2023-04-25T23:46:50.391Z,1.48
2023-04-25T23:49:17.489Z,1.42
2023-04-25T23:51:44.531Z,1.70
2023-04-25T23:54:12.080Z,1.42
2023-04-25T23:56:39.138Z,1.85
2023-04-25T23:59:06.401Z,1.60
